createdAt,value
2023-03-05T00:01:11.081Z,6.9
2023-03-05T00:04:13.037Z,7.2
2023-03-05T00:07:14.995Z,6.1
2023-03-05T00:10:16.963Z,6.7
2023-03-05T00:13:18.914Z,5.8
2023-03-05T00:16:21.011Z,6.2
2023-03-05T00:19:22.858Z,5.9
2023-03-05T00:22:24.811Z,5.9
2023-03-05T00:25:26.766Z,5
2023-03-05T00:28:28.932Z,5.1
2023-03-05T00:31:30.759Z,4.7
2023-03-05T00:34:32.666Z,4.5
2023-03-05T00:37:34.619Z,4.3
2023-03-05T00:40:36.647Z,5.2
2023-03-05T00:43:38.581Z,4.7
2023-03-05T00:46:40.681Z,4.8
2023-03-05T00:49:42.511Z,4.6
2023-03-05T00:52:44.479Z,4
2023-03-05T00:55:46.441Z,3.8
2023-03-05T00:58:48.387Z,4.6
2023-03-05T01:01:50.370Z,3.8
2023-03-05T01:04:52.325Z,4.3
2023-03-05T01:07:54.270Z,4.4
2023-03-05T01:10:56.239Z,4.7
2023-03-05T01:13:58.171Z,5.1
2023-03-05T01:17:00.143Z,4.7
2023-03-05T01:20:02.098Z,4.7
2023-03-05T01:23:04.073Z,4.4
2023-03-05T01:26:06.026Z,4.2
2023-03-05T01:29:07.975Z,4
2023-03-05T01:32:09.956Z,3.7
2023-03-05T01:35:11.908Z,3.7
2023-03-05T01:38:13.905Z,3.8
2023-03-05T01:41:15.849Z,3.6
2023-03-05T01:44:17.799Z,3.5
2023-03-05T01:47:19.768Z,3.1
2023-03-05T01:50:21.731Z,3
2023-03-05T01:53:23.701Z,3.6
2023-03-05T01:56:25.653Z,3
2023-03-05T01:59:27.622Z,3.5
2023-03-05T02:02:29.566Z,3.1
2023-03-05T02:05:31.668Z,3.2
2023-03-05T02:08:33.523Z,3
2023-03-05T02:11:35.557Z,2.7
2023-03-05T02:14:37.549Z,2.7
2023-03-05T02:17:39.435Z,2.7
2023-03-05T02:20:41.360Z,3.1
2023-03-05T02:23:43.328Z,2.9
2023-03-05T02:26:45.337Z,3.3
2023-03-05T02:29:47.260Z,2.9
2023-03-05T02:32:49.225Z,3.2
2023-03-05T02:35:51.226Z,3.6
2023-03-05T02:38:53.160Z,3
2023-03-05T02:41:55.122Z,3
2023-03-05T02:44:57.068Z,3.1
2023-03-05T02:47:59.057Z,3.6
2023-03-05T02:51:01.030Z,3.7
2023-03-05T02:54:02.999Z,4.3
2023-03-05T02:57:04.973Z,3.5
2023-03-05T03:00:06.954Z,4.3
2023-03-05T03:03:08.980Z,4.3
2023-03-05T03:06:10.819Z,4.3
2023-03-05T03:09:12.801Z,4.2
2023-03-05T03:12:14.758Z,4.6
2023-03-05T03:15:16.710Z,4.3
2023-03-05T03:18:18.692Z,4.3
2023-03-05T03:21:20.659Z,4.6
2023-03-05T03:24:22.631Z,4.3
2023-03-05T03:27:24.575Z,4.1
2023-03-05T03:30:26.534Z,4.5
2023-03-05T03:33:28.503Z,4.6
2023-03-05T03:36:30.471Z,3.9
2023-03-05T03:39:32.443Z,4.2
2023-03-05T03:42:34.412Z,4.6
2023-03-05T03:45:36.358Z,4.2
2023-03-05T03:48:38.324Z,4.5
2023-03-05T03:51:40.280Z,4.8
2023-03-05T03:54:42.267Z,4.8
2023-03-05T03:57:44.217Z,4.8
2023-03-05T04:00:46.163Z,5.2
2023-03-05T04:03:48.131Z,4.7
2023-03-05T04:06:50.079Z,4.7
2023-03-05T04:09:52.057Z,4.1
2023-03-05T04:12:54.040Z,3.7
2023-03-05T04:15:55.989Z,3.2
2023-03-05T04:18:57.942Z,3.4
2023-03-05T04:21:59.898Z,3.4
2023-03-05T04:25:01.857Z,3.2
2023-03-05T04:28:03.814Z,2.7
2023-03-05T04:31:05.787Z,2.8
2023-03-05T04:34:07.718Z,2.5
2023-03-05T04:37:09.691Z,2.6
2023-03-05T04:40:11.649Z,2.4
2023-03-05T04:43:13.617Z,2.2
2023-03-05T04:46:15.614Z,2.5
2023-03-05T04:49:17.531Z,2.2
2023-03-05T04:52:19.510Z,2
2023-03-05T04:55:21.465Z,2
2023-03-05T04:58:23.457Z,1.7
2023-03-05T05:01:25.389Z,1.9
2023-03-05T05:04:27.326Z,1.8
2023-03-05T05:07:29.305Z,1.5
2023-03-05T05:10:31.279Z,1.5
2023-03-05T05:13:33.252Z,1.6
2023-03-05T05:16:35.262Z,1.4
2023-03-05T05:19:37.199Z,1.3
2023-03-05T05:22:39.132Z,1.1
2023-03-05T05:25:41.085Z,1.3
2023-03-05T05:28:43.016Z,1.6
2023-03-05T05:31:45.038Z,1.2
2023-03-05T05:34:46.969Z,1.6
2023-03-05T05:37:48.925Z,1.6
2023-03-05T05:40:50.890Z,1.7
2023-03-05T05:43:52.833Z,2
2023-03-05T05:46:54.800Z,1.5
2023-03-05T05:49:56.763Z,1.6
2023-03-05T05:52:58.758Z,1.5
2023-03-05T05:56:00.719Z,1.7
2023-03-05T05:59:02.681Z,1.6
2023-03-05T06:02:04.668Z,1.8
2023-03-05T06:05:06.842Z,1.5
2023-03-05T06:08:08.568Z,1.4
2023-03-05T06:11:10.526Z,1.6
2023-03-05T06:14:12.460Z,1.5
2023-03-05T06:17:19.254Z,1.3
2023-03-05T06:20:16.410Z,1.9
2023-03-05T06:23:18.379Z,2
2023-03-05T06:26:20.342Z,2
2023-03-05T06:29:22.299Z,2
2023-03-05T06:32:24.260Z,1.6
2023-03-05T06:35:26.241Z,2
2023-03-05T06:38:28.192Z,1.6
2023-03-05T06:41:30.198Z,2.2
2023-03-05T06:44:32.189Z,2.1
2023-03-05T06:47:34.090Z,1.8
2023-03-05T06:50:36.089Z,1.9
2023-03-05T06:53:38.057Z,2
2023-03-05T06:56:40.234Z,1.9
2023-03-05T06:59:41.946Z,1.9
2023-03-05T07:02:43.951Z,2.2
2023-03-05T07:05:45.847Z,2.2
2023-03-05T07:08:47.824Z,2.4
2023-03-05T07:11:49.773Z,2
2023-03-05T07:14:51.721Z,2.1
2023-03-05T07:17:53.692Z,2
2023-03-05T07:20:55.633Z,2.4
2023-03-05T07:23:57.603Z,2.4
2023-03-05T07:26:59.565Z,2.5
2023-03-05T07:30:01.530Z,3.4
2023-03-05T07:33:03.487Z,3.7
2023-03-05T07:36:05.418Z,3.9
2023-03-05T07:39:07.419Z,3.6
2023-03-05T07:42:09.379Z,3.6
2023-03-05T07:45:11.314Z,3.7
2023-03-05T07:48:13.294Z,4.2
2023-03-05T07:51:15.248Z,4.5
2023-03-05T07:54:17.197Z,4.2
2023-03-05T07:57:19.160Z,3.9
2023-03-05T08:00:21.136Z,4
2023-03-05T08:03:23.147Z,4.1
2023-03-05T08:06:25.098Z,3.7
2023-03-05T08:09:27.059Z,4.5
2023-03-05T08:12:29.011Z,3.6
2023-03-05T08:15:31.024Z,4.1
2023-03-05T08:18:32.993Z,3.4
2023-03-05T08:21:34.991Z,3.8
2023-03-05T08:24:36.996Z,4
2023-03-05T08:27:38.880Z,4.5
2023-03-05T08:30:40.833Z,4
2023-03-05T08:33:42.800Z,4
2023-03-05T08:36:44.745Z,4.2
2023-03-05T08:39:46.700Z,4.7
2023-03-05T08:42:48.663Z,4.5
2023-03-05T08:45:50.629Z,4.5
2023-03-05T08:48:52.602Z,5.4
2023-03-05T08:51:54.563Z,4.3
2023-03-05T08:54:56.670Z,4.5
2023-03-05T08:57:58.484Z,4.8
2023-03-05T09:01:00.459Z,5
2023-03-05T09:04:02.417Z,4.5
2023-03-05T09:07:05.879Z,5.4
2023-03-05T09:10:06.386Z,4.7
2023-03-05T09:13:08.354Z,4.9
2023-03-05T09:16:10.401Z,5
2023-03-05T09:19:12.254Z,5
2023-03-05T09:22:14.229Z,4.7
2023-03-05T09:25:16.196Z,5
2023-03-05T09:28:18.182Z,5.5
2023-03-05T09:31:20.202Z,4.7
2023-03-05T09:34:22.067Z,5.4
2023-03-05T09:37:24.026Z,5
2023-03-05T09:40:26.009Z,4.5
2023-03-05T09:43:27.952Z,5
2023-03-05T09:46:29.917Z,5.1
2023-03-05T09:49:31.892Z,5.9
2023-03-05T09:52:33.834Z,6.4
2023-03-05T09:55:35.811Z,6.3
2023-03-05T09:58:37.978Z,6.4
2023-03-05T10:01:39.735Z,5.6
2023-03-05T10:04:41.714Z,7.4
2023-03-05T10:07:43.639Z,6.1
2023-03-05T10:10:45.671Z,5.6
2023-03-05T10:13:47.612Z,6.8
2023-03-05T10:16:49.601Z,6.2
2023-03-05T10:19:51.559Z,6.4
2023-03-05T10:22:53.546Z,6.6
2023-03-05T10:25:55.472Z,6.1
2023-03-05T10:28:57.447Z,6
2023-03-05T10:31:59.533Z,8.6
2023-03-05T10:35:01.511Z,6.8
2023-03-05T10:38:03.324Z,5.8
2023-03-05T10:41:05.293Z,5.8
2023-03-05T10:44:07.274Z,5.7
2023-03-05T10:47:09.209Z,6.1
2023-03-05T10:50:11.212Z,7
2023-03-05T10:53:13.157Z,7.6
2023-03-05T10:56:15.142Z,24.2
2023-03-05T10:59:17.093Z,14.2
2023-03-05T11:02:19.084Z,9.9
2023-03-05T11:05:21.024Z,11.2
2023-03-05T11:08:23.000Z,7.6
2023-03-05T11:11:24.951Z,8.6
2023-03-05T11:14:26.910Z,7.6
2023-03-05T11:17:28.888Z,7.8
2023-03-05T11:20:30.843Z,7.4
2023-03-05T11:23:32.808Z,7
2023-03-05T11:26:34.770Z,6.5
2023-03-05T11:29:36.722Z,6.1
2023-03-05T11:32:38.731Z,7.6
2023-03-05T11:35:40.661Z,6.4
2023-03-05T11:38:42.631Z,6.7
2023-03-05T11:41:44.596Z,5.8
2023-03-05T11:44:46.529Z,5.4
2023-03-05T11:47:48.506Z,5.1
2023-03-05T11:50:50.454Z,5
2023-03-05T11:53:52.409Z,5.4
2023-03-05T11:56:54.390Z,5
2023-03-05T11:59:56.341Z,5.5
2023-03-05T12:02:58.335Z,5.8
2023-03-05T12:06:00.272Z,4.9
2023-03-05T12:09:02.226Z,5
2023-03-05T12:12:04.187Z,4.8
2023-03-05T12:15:06.163Z,5.4
2023-03-05T12:18:08.123Z,5.4
2023-03-05T12:21:10.059Z,4.8
2023-03-05T12:24:12.022Z,4.5
2023-03-05T12:27:14.021Z,4.7
2023-03-05T12:30:16.070Z,4.7
2023-03-05T12:33:17.947Z,5.5
2023-03-05T12:36:19.911Z,4.8
2023-03-05T12:39:21.877Z,4.4
2023-03-05T12:42:23.857Z,4.6
2023-03-05T12:45:25.796Z,4.3
2023-03-05T12:48:27.825Z,4.5
2023-03-05T12:51:29.792Z,4.7
2023-03-05T12:54:31.666Z,4.8
2023-03-05T12:57:33.624Z,4
2023-03-05T13:00:35.591Z,4.4
2023-03-05T13:03:37.593Z,4.2
2023-03-05T13:06:39.511Z,4.2
2023-03-05T13:09:41.479Z,4.2
2023-03-05T13:12:43.416Z,4.2
2023-03-05T13:15:45.377Z,3.8
2023-03-05T13:18:47.385Z,4
2023-03-05T13:21:49.277Z,3
2023-03-05T13:24:51.232Z,3.4
2023-03-05T13:27:53.209Z,3.7
2023-03-05T13:30:55.192Z,2.9
2023-03-05T13:33:57.159Z,2.9
2023-03-05T13:36:59.118Z,2.3
2023-03-05T13:40:01.986Z,2.4
2023-03-05T13:43:03.125Z,2.6
2023-03-05T13:46:05.110Z,2.5
2023-03-05T13:49:06.970Z,2.8
2023-03-05T13:52:08.921Z,3.9
2023-03-05T13:55:10.873Z,2.8
2023-03-05T13:58:12.847Z,2.5
2023-03-05T14:01:14.942Z,2.4
2023-03-05T14:04:16.754Z,3.1
2023-03-05T14:07:18.854Z,10.4
2023-03-05T14:10:20.670Z,4
2023-03-05T14:13:22.635Z,3.2
2023-03-05T14:16:24.665Z,3
2023-03-05T14:19:26.536Z,2.4
2023-03-05T14:22:28.502Z,2.3
2023-03-05T14:25:30.486Z,2.5
2023-03-05T14:28:32.426Z,2.7
2023-03-05T14:31:34.374Z,2.1
2023-03-05T14:34:36.336Z,2.1
2023-03-05T14:37:38.287Z,2.2
2023-03-05T14:40:40.249Z,2.7
2023-03-05T14:43:42.393Z,2
2023-03-05T14:46:44.188Z,2.2
2023-03-05T14:49:46.130Z,1.9
2023-03-05T14:52:48.132Z,2.2
2023-03-05T14:55:50.057Z,2.1
2023-03-05T14:58:52.024Z,2
2023-03-05T15:01:53.964Z,2.8
2023-03-05T15:04:55.935Z,2.7
2023-03-05T15:07:57.898Z,3
2023-03-05T15:11:00.033Z,4.3
2023-03-05T15:14:01.887Z,2.6
2023-03-05T15:17:03.815Z,2.2
2023-03-05T15:20:05.783Z,2.1
2023-03-05T15:23:07.717Z,4.4
2023-03-05T15:26:09.713Z,2.7
2023-03-05T15:29:11.668Z,2.5
2023-03-05T15:32:13.729Z,2.5
2023-03-05T15:35:15.603Z,3.2
2023-03-05T15:38:17.551Z,2.5
2023-03-05T15:41:19.522Z,2.7
2023-03-05T15:44:21.470Z,2.8
2023-03-05T15:47:23.434Z,2.2
2023-03-05T15:50:25.398Z,2.4
2023-03-05T15:53:27.352Z,2.2
2023-03-05T15:56:29.317Z,2
2023-03-05T15:59:31.290Z,2.3
2023-03-05T16:02:33.236Z,2.3
2023-03-05T16:05:35.186Z,2.5
2023-03-05T16:08:37.192Z,2.7
2023-03-05T16:11:39.111Z,2.1
2023-03-05T16:14:41.083Z,2.4
2023-03-05T16:17:44.056Z,5.7
2023-03-05T16:20:45.034Z,7.8
2023-03-05T16:23:47.008Z,5.4
2023-03-05T16:26:48.978Z,5.7
2023-03-05T16:29:50.919Z,4.8
2023-03-05T16:32:53.776Z,6.7
2023-03-05T16:35:56.162Z,5.1
2023-03-05T16:38:56.835Z,6.5
2023-03-05T16:41:58.767Z,4.1
2023-03-05T16:45:00.735Z,3.5
2023-03-05T16:48:02.706Z,3.6
2023-03-05T16:51:04.663Z,3.9
2023-03-05T16:54:07.854Z,4.9
2023-03-05T16:57:08.649Z,3.6
2023-03-05T17:00:10.576Z,3.5
2023-03-05T17:03:12.509Z,3.8
2023-03-05T17:06:14.506Z,3.6
2023-03-05T17:09:16.464Z,8.6
2023-03-05T17:12:18.413Z,4.2
2023-03-05T17:15:20.385Z,5.3
2023-03-05T17:18:22.338Z,4
2023-03-05T17:21:24.325Z,4.7
2023-03-05T17:24:26.278Z,4.3
2023-03-05T17:27:28.236Z,4.3
2023-03-05T17:30:30.197Z,3.9
2023-03-05T17:33:32.215Z,4
2023-03-05T17:36:34.122Z,6.7
2023-03-05T17:39:36.075Z,5.5
2023-03-05T17:42:38.033Z,4.9
2023-03-05T17:45:40.260Z,5.4
2023-03-05T17:48:41.969Z,4.8
2023-03-05T17:51:43.941Z,4.4
2023-03-05T17:54:45.875Z,4.1
2023-03-05T17:57:47.900Z,4.2
2023-03-05T18:00:49.856Z,3.9
2023-03-05T18:03:51.830Z,4.2
2023-03-05T18:06:53.769Z,6.7
2023-03-05T18:09:55.714Z,9.5
2023-03-05T18:12:57.691Z,6.7
2023-03-05T18:15:59.657Z,5
2023-03-05T18:19:01.595Z,4.9
2023-03-05T18:22:03.552Z,4.8
2023-03-05T18:25:05.663Z,4.5
2023-03-05T18:28:07.495Z,4
2023-03-05T18:31:09.456Z,4
2023-03-05T18:34:11.412Z,4.3
2023-03-05T18:37:13.368Z,4.9
2023-03-05T18:40:16.869Z,4.2
2023-03-05T18:43:17.282Z,4
2023-03-05T18:46:19.634Z,4.5
2023-03-05T18:49:21.191Z,4.1
2023-03-05T18:52:23.158Z,4.2
2023-03-05T18:55:25.121Z,4
2023-03-05T18:58:27.075Z,4.5
2023-03-05T19:01:29.163Z,4.1
2023-03-05T19:04:31.041Z,3.8
2023-03-05T19:07:33.003Z,3.7
2023-03-05T19:10:34.925Z,3.8
2023-03-05T19:13:36.907Z,3.6
2023-03-05T19:16:38.858Z,3.7
2023-03-05T19:19:40.840Z,3.8
2023-03-05T19:22:42.821Z,4
2023-03-05T19:25:44.776Z,3.7
2023-03-05T19:28:46.748Z,3.2
2023-03-05T19:31:48.714Z,3.2
2023-03-05T19:34:50.692Z,3.9
2023-03-05T19:37:52.634Z,4
2023-03-05T19:40:54.585Z,4.2
2023-03-05T19:43:56.555Z,4.3
2023-03-05T19:46:58.536Z,3.5
2023-03-05T19:50:00.499Z,3.8
2023-03-05T19:53:02.435Z,4.4
2023-03-05T19:56:04.401Z,4.1
2023-03-05T19:59:06.530Z,3.9
2023-03-05T20:02:08.351Z,4.8
2023-03-05T20:05:10.399Z,4.2
2023-03-05T20:08:12.477Z,4.1
2023-03-05T20:11:14.227Z,4.7
2023-03-05T20:14:16.204Z,4.6
2023-03-05T20:17:18.152Z,5.1
2023-03-05T20:20:20.122Z,4.4
2023-03-05T20:23:22.081Z,4.4
2023-03-05T20:26:24.053Z,4.4
2023-03-05T20:29:26.038Z,4.2
2023-03-05T20:32:28.078Z,4.5
2023-03-05T20:35:29.994Z,4.1
2023-03-05T20:38:31.911Z,4
2023-03-05T20:41:33.885Z,4.7
2023-03-05T20:44:35.852Z,5
2023-03-05T20:47:37.793Z,5.1
2023-03-05T20:50:39.765Z,4.8
2023-03-05T20:53:41.713Z,3.9
2023-03-05T20:56:43.699Z,5.5
2023-03-05T20:59:45.672Z,4.3
2023-03-05T21:02:47.624Z,4.4
2023-03-05T21:05:49.597Z,4.6
2023-03-05T21:08:51.543Z,4.2
2023-03-05T21:11:53.505Z,4.4
2023-03-05T21:14:55.477Z,4.9
2023-03-05T21:17:57.417Z,5.3
2023-03-05T21:20:59.387Z,4.8
2023-03-05T21:24:01.378Z,4.7
2023-03-05T21:27:03.326Z,5.4
2023-03-05T21:30:05.276Z,5.7
2023-03-05T21:33:07.278Z,6
2023-03-05T21:36:09.191Z,5
2023-03-05T21:39:11.156Z,5.2
2023-03-05T21:42:13.339Z,5.1
2023-03-05T21:45:15.105Z,5.7
2023-03-05T21:48:17.046Z,4.6
2023-03-05T21:51:19.008Z,5.6
2023-03-05T21:54:20.978Z,5.3
2023-03-05T21:57:22.948Z,5.1
2023-03-05T22:00:24.865Z,5.7
2023-03-05T22:03:26.883Z,5.4
2023-03-05T22:06:28.839Z,5.2
2023-03-05T22:09:30.800Z,5.3
2023-03-05T22:12:32.766Z,5.4
2023-03-05T22:15:34.728Z,5.3
2023-03-05T22:18:36.697Z,5.5
2023-03-05T22:21:38.649Z,4.9
2023-03-05T22:24:40.605Z,5.1
2023-03-05T22:27:42.560Z,4.7
2023-03-05T22:30:44.609Z,5.3
2023-03-05T22:33:46.474Z,5.2
2023-03-05T22:36:48.436Z,5.1
2023-03-05T22:39:50.418Z,5.4
2023-03-05T22:42:52.362Z,4.5
2023-03-05T22:45:54.437Z,5.2
2023-03-05T22:48:56.322Z,4.5
2023-03-05T22:51:58.276Z,4.5
2023-03-05T22:55:00.253Z,4.7
2023-03-05T22:58:02.198Z,5
2023-03-05T23:01:04.180Z,4.5
2023-03-05T23:04:06.183Z,4.7
2023-03-05T23:07:08.124Z,4.7
2023-03-05T23:10:10.094Z,7.8
2023-03-05T23:13:12.021Z,6.3
2023-03-05T23:16:14.004Z,5.8
2023-03-05T23:19:16.012Z,5.3
2023-03-05T23:22:17.921Z,4.6
2023-03-05T23:25:19.880Z,4.5
2023-03-05T23:28:21.821Z,5.4
2023-03-05T23:31:24.045Z,4.4
2023-03-05T23:34:25.744Z,4.6
2023-03-05T23:37:27.699Z,4.6
2023-03-05T23:40:29.668Z,5.5
2023-03-05T23:43:31.618Z,5.1
2023-03-05T23:46:33.664Z,4.3
2023-03-05T23:49:35.586Z,4.6
2023-03-05T23:52:37.547Z,4.5
2023-03-05T23:55:39.494Z,4.9
2023-03-05T23:58:41.470Z,4.4
